Houston, TX (77001)

6:58 PM CDT on August 04, 2015 (GMT -0500)
Port of Houston | | Change Station
CLOSE
Current Station
Personal Weather Station
Location: Houston, TX
Elevation: 30 ft
Nearby Weather Stations

Elev 30 ft 29.72 °N, 95.27 °W | Updated 8 minutes ago

Mostly Cloudy
Mostly Cloudy
92.4 °F
Feels Like 101 °F
N
5.0
Wind Variable Wind from North
Gusts 13.0 mph

Today
High -- | Low -- °F
--% Chance of Precip.
Yesterday
High -- | Low -- °F
Precip. -- in
6:42 AM 8:11 PM
Waning Gibbous, 73% visible
Pressure 29.93 in
Visibility 10.0 miles
Clouds Few 4500 ft
Scattered Clouds 10000 ft
Mostly Cloudy 25000 ft
Heat Index 101 °F
Dew Point 72 °F
Humidity 52%
Rainfall 0.00 in
Snow Depth Not available.
UV 1 out of 12
Pollen 3.30 out of 12
Air Quality Not available.
Flu Activity Not available.
METAR KHOU 042353Z 16007KT 10SM FEW045 SCT100 BKN250 33/21 A2991 RMK AO2 SLP133 60015 T03280206 10350 20283 56008

More Conditions Fewer Conditions

Pressure 29.93 in
Visibility 10.0 miles
Clouds Few 4500 ft
Scattered Clouds 10000 ft
Mostly Cloudy 25000 ft
Heat Index 101 °F
Dew Point 72 °F
Humidity 52%
Rainfall 0.00 in
Snow Depth Not available.
UV 1 out of 12
Pollen 3.30 out of 12
Air Quality Not available.
Flu Activity Not available.
METAR KHOU 042353Z 16007KT 10SM FEW045 SCT100 BKN250 33/21 A2991 RMK AO2 SLP133 60015 T03280206 10350 20283 56008

More Conditions Fewer Conditions

10-Day Weather Forecast

×

Almanac

Astronomy

Aug. 04, 2015 Rise Set
Actual Time
Civil Twilight
Nautical Twilight
Astronomical Twilight
Moon
Length of Visible Light
Length of Day
Tomorrow will be .
, % of the Moon is Illuminated

Today's Extremes

State Highs State Lows

Community

WunderPhotos

Upload Photos

1,844,023 photos uploaded!

WunderBlogs® & News

Nearby

Air Quality

  Air Quality AQ Index Pollutant
Not available.

Snow Depth

Station Depth Elevation

Earthquake Activity

City Distance Mag. Time & Date
Minimum magnitude displayed is 2.5.

Coastal Water Temperatures

Place Temperature

Stations

Nearby Weather Stations

Station Location Temp. Windchill Dew Point Humidity Wind Precip. Elev Updated Type